Time;durP1;ratioP1;P1;durP2;ratioP2;P2;SDS_P1;SDS_P2;PMS_P1;PMS_P2;Temp;Humidity;BMP_temperature;BMP_pressure;BME280_temperature;BME280_humidity;BME280_pressure;Samples;Min_cycle;Max_cycle;Signal;HPM_P1;HPM_P2
2023/09/22 00:00:58;;;;;;;3.90;1.60;;;16.40;21.50;;;;;;5036579;28;20957;-81
2023/09/22 00:03:32;;;;;;;1.57;1.47;;;16.40;19.60;;;;;;5046270;28;20430;-83
2023/09/22 00:06:15;;;;;;;7.17;1.50;;;16.40;20.40;;;;;;5045296;28;20779;-81
2023/09/22 00:08:45;;;;;;;4.40;2.20;;;16.40;21.00;;;;;;5044581;28;20942;-81
2023/09/22 00:11:11;;;;;;;2.70;1.50;;;16.40;19.90;;;;;;5043413;28;20514;-81
2023/09/22 00:13:50;;;;;;;7.97;1.70;;;16.50;19.70;;;;;;5035581;28;20568;-81
2023/09/22 00:16:20;;;;;;;2.77;1.80;;;16.50;20.80;;;;;;5031216;28;20558;-81
2023/09/22 00:19:08;;;;;;;4.20;1.73;;;16.40;19.10;;;;;;5040922;28;20920;-83
2023/09/22 00:22:19;;;;;;;2.33;1.57;;;16.30;19.80;;;;;;5033459;28;20427;-84
2023/09/22 00:25:25;;;;;;;2.63;1.50;;;16.30;21.20;;;;;;5037243;28;20387;-84
2023/09/22 00:27:56;;;;;;;2.67;1.83;;;16.20;22.70;;;;;;5015618;28;20452;-83
2023/09/22 00:30:26;;;;;;;4.20;2.37;;;16.20;26.00;;;;;;5040622;28;20427;-84
2023/09/22 00:33:02;;;;;;;2.30;1.70;;;16.20;26.30;;;;;;5033131;28;20408;-84
2023/09/22 00:35:28;;;;;;;2.40;1.87;;;16.30;27.80;;;;;;5028238;28;20425;-81
2023/09/22 00:38:02;;;;;;;3.67;1.67;;;16.20;30.00;;;;;;5031657;28;20429;-81
2023/09/22 00:40:44;;;;;;;2.10;2.00;;;16.20;30.50;;;;;;5024729;28;20414;-81
2023/09/22 00:43:17;;;;;;;4.20;2.10;;;16.20;29.20;;;;;;5033692;28;20421;-81
2023/09/22 00:46:02;;;;;;;7.77;2.33;;;16.20;25.80;;;;;;5030058;28;20809;-81
2023/09/22 00:48:34;;;;;;;1.80;1.70;;;16.10;23.30;;;;;;5036346;28;20793;-81
2023/09/22 00:51:01;;;;;;;2.33;1.70;;;16.00;22.90;;;;;;5039577;28;20443;-81
2023/09/22 00:53:29;;;;;;;3.03;1.60;;;16.00;22.20;;;;;;5027094;28;20431;-81
2023/09/22 00:56:02;;;;;;;1.80;1.70;;;16.00;23.00;;;;;;5030457;28;20877;-80
2023/09/22 00:58:29;;;;;;;1.67;1.57;;;15.90;22.20;;;;;;5045093;28;20963;-81
2023/09/22 01:01:14;;;;;;;1.83;1.73;;;15.90;22.30;;;;;;5033522;28;20801;-81
2023/09/22 01:03:45;;;;;;;2.30;1.70;;;15.90;20.20;;;;;;5039040;28;20480;-81
2023/09/22 01:06:14;;;;;;;5.27;1.50;;;15.90;19.70;;;;;;5032818;28;20775;-81
2023/09/22 01:08:56;;;;;;;5.23;1.70;;;15.90;19.00;;;;;;5017001;28;20414;-81
2023/09/22 01:11:21;;;;;;;6.50;1.73;;;15.90;16.90;;;;;;5039851;28;20424;-80
2023/09/22 01:13:50;;;;;;;1.83;1.50;;;15.90;14.80;;;;;;5027963;28;20781;-81
2023/09/22 01:16:27;;;;;;;1.73;1.63;;;15.80;15.00;;;;;;5050918;28;20730;-81
2023/09/22 01:18:57;;;;;;;2.30;1.97;;;15.70;14.50;;;;;;5035057;28;20402;-81
2023/09/22 01:21:32;;;;;;;4.20;1.60;;;15.70;15.50;;;;;;5033231;28;20427;-82
2023/09/22 01:27:20;;;;;;;35.07;2.40;;;15.70;12.00;;;;;;5043878;28;20414;-83
2023/09/22 01:29:56;;;;;;;2.00;1.80;;;15.60;12.90;;;;;;5045247;28;20952;-84
2023/09/22 01:32:44;;;;;;;3.70;1.87;;;15.50;13.00;;;;;;5035127;28;20507;-84
2023/09/22 01:35:10;;;;;;;7.53;1.87;;;15.50;12.50;;;;;;5028009;28;20436;-82
2023/09/22 01:38:14;;;;;;;7.20;1.90;;;15.40;12.50;;;;;;5029837;28;20429;-81
2023/09/22 01:40:58;;;;;;;5.47;1.83;;;15.40;10.10;;;;;;5042075;28;20415;-81
2023/09/22 01:43:39;;;;;;;4.93;1.60;;;15.40;8.30;;;;;;5034537;28;20433;-81
2023/09/22 01:46:26;;;;;;;2.57;1.80;;;15.40;6.10;;;;;;5035019;28;20421;-81
2023/09/22 01:48:56;;;;;;;1.80;1.70;;;15.40;5.80;;;;;;5046984;28;20497;-81
2023/09/22 01:51:23;;;;;;;1.63;1.53;;;15.40;4.40;;;;;;5040404;28;20903;-83
2023/09/22 01:53:56;;;;;;;2.07;1.90;;;15.30;5.70;;;;;;5038112;28;20430;-84
2023/09/22 01:56:26;;;;;;;1.53;1.43;;;15.20;6.90;;;;;;5043235;28;20820;-83
2023/09/22 01:59:26;;;;;;;1.90;1.80;;;15.20;8.20;;;;;;5020672;28;20922;-84
2023/09/22 02:02:26;;;;;;;3.80;1.80;;;15.20;9.20;;;;;;5031445;28;20395;-84
2023/09/22 02:04:56;;;;;;;2.63;1.73;;;15.20;9.40;;;;;;5030490;28;20430;-83
2023/09/22 02:10:44;;;;;;;3.90;1.50;;;15.10;14.80;;;;;;5041967;28;20425;-84
2023/09/22 02:13:26;;;;;;;5.70;2.27;;;15.10;16.50;;;;;;5035925;28;20431;-84
2023/09/22 02:16:26;;;;;;;2.80;1.80;;;15.10;20.00;;;;;;5034323;28;20462;-81
2023/09/22 02:19:02;;;;;;;6.53;1.60;;;15.10;15.10;;;;;;5047235;28;20406;-84
2023/09/22 02:21:28;;;;;;;6.40;1.97;;;15.00;15.50;;;;;;5031504;28;20387;-81
2023/09/22 02:24:14;;;;;;;3.60;1.80;;;15.00;15.90;;;;;;5044430;28;20405;-82
2023/09/22 02:26:56;;;;;;;7.50;1.70;;;15.00;12.90;;;;;;5039443;28;20520;-81
2023/09/22 02:29:26;;;;;;;2.40;1.77;;;15.10;7.20;;;;;;5023121;28;20762;-81
2023/09/22 02:31:52;;;;;;;1.77;1.67;;;15.00;7.70;;;;;;5033557;28;20439;-81
2023/09/22 02:34:50;;;;;;;2.63;1.87;;;15.10;9.20;;;;;;5035246;28;20899;-80
2023/09/22 02:37:16;;;;;;;1.60;1.50;;;15.10;9.20;;;;;;5038798;28;20204;-84
2023/09/22 02:39:56;;;;;;;7.43;1.53;;;15.00;7.90;;;;;;5037619;28;20774;-84
2023/09/22 02:42:26;;;;;;;4.97;1.70;;;15.00;7.00;;;;;;5041847;28;20426;-86
2023/09/22 02:44:56;;;;;;;2.20;1.30;;;15.00;3.20;;;;;;5033568;28;20522;-86
2023/09/22 02:47:56;;;;;;;2.07;1.80;;;15.00;4.60;;;;;;5033985;28;20783;-86
2023/09/22 02:50:27;;;;;;;4.83;2.40;;;14.90;7.20;;;;;;5047277;28;20459;-83
2023/09/22 02:52:56;;;;;;;14.03;2.30;;;14.90;8.50;;;;;;5030494;28;20437;-82
2023/09/22 02:55:26;;;;;;;2.13;1.63;;;14.90;8.80;;;;;;5041299;28;20453;-82
2023/09/22 02:57:56;;;;;;;2.70;2.00;;;14.90;6.50;;;;;;5030326;28;20463;-82
2023/09/22 03:00:43;;;;;;;2.50;1.80;;;14.90;4.60;;;;;;5030753;28;21014;-82
2023/09/22 03:03:32;;;;;;;4.40;1.97;;;14.70;3.00;;;;;;5033322;28;20405;-83
2023/09/22 03:06:26;;;;;;;2.30;1.87;;;14.70;4.00;;;;;;5035645;28;20470;-83
2023/09/22 03:09:17;;;;;;;1.50;1.40;;;14.70;1.90;;;;;;5026714;28;20422;-82
2023/09/22 03:11:56;;;;;;;2.17;1.60;;;14.70;1.10;;;;;;5033447;28;20415;-82
2023/09/22 03:14:26;;;;;;;5.23;1.70;;;14.80;1.00;;;;;;5037212;28;20398;-83
2023/09/22 03:16:57;;;;;;;8.33;2.00;;;14.70;1.00;;;;;;5044328;28;20480;-82
2023/09/22 03:19:23;;;;;;;2.77;1.63;;;14.70;1.00;;;;;;5033203;28;20864;-83
2023/09/22 03:21:57;;;;;;;6.23;2.00;;;14.70;1.00;;;;;;5049023;28;20492;-83
2023/09/22 03:24:27;;;;;;;2.87;2.07;;;14.70;1.00;;;;;;5050464;28;20424;-83
2023/09/22 03:26:56;;;;;;;1.73;1.63;;;14.60;1.00;;;;;;5026453;28;20418;-83
2023/09/22 03:29:26;;;;;;;5.43;1.70;;;14.60;1.00;;;;;;5049694;28;20497;-83
2023/09/22 03:31:56;;;;;;;10.70;1.73;;;14.50;1.00;;;;;;5040710;28;20396;-83
2023/09/22 03:34:27;;;;;;;2.40;1.60;;;14.60;1.00;;;;;;5039571;28;20414;-83
2023/09/22 03:36:56;;;;;;;3.60;1.60;;;14.50;1.00;;;;;;5039541;28;20792;-83
2023/09/22 03:39:28;;;;;;;1.90;1.80;;;14.40;2.40;;;;;;5050186;28;20887;-83
2023/09/22 03:41:56;;;;;;;1.73;1.63;;;14.40;3.10;;;;;;5044282;28;20476;-83
2023/09/22 03:44:26;;;;;;;5.27;1.67;;;14.50;2.80;;;;;;5046049;28;20421;-82
2023/09/22 03:46:56;;;;;;;3.67;1.33;;;14.50;2.10;;;;;;5033788;28;20398;-83
2023/09/22 03:49:32;;;;;;;6.23;1.63;;;14.50;1.60;;;;;;5051734;28;20941;-83
2023/09/22 03:55:26;;;;;;;1.60;1.30;;;14.50;1.00;;;;;;5038157;28;20392;-83
2023/09/22 03:57:56;;;;;;;2.20;1.60;;;14.50;1.80;;;;;;5036400;28;20462;-82
2023/09/22 04:00:28;;;;;;;4.83;1.83;;;14.40;2.50;;;;;;5017257;28;20383;-83
2023/09/22 04:02:56;;;;;;;1.60;1.50;;;14.50;3.70;;;;;;5053637;28;20480;-83
2023/09/22 04:05:56;;;;;;;22.07;1.70;;;14.50;3.30;;;;;;5044209;28;20425;-83
2023/09/22 04:08:22;;;;;;;1.77;1.67;;;14.40;4.10;;;;;;5021930;28;20452;-83
2023/09/22 04:10:56;;;;;;;2.60;1.97;;;14.40;7.20;;;;;;5039547;28;20923;-83
2023/09/22 04:13:27;;;;;;;2.00;1.80;;;14.70;8.20;;;;;;5049646;28;20397;-82
2023/09/22 04:16:14;;;;;;;4.17;1.70;;;14.40;8.70;;;;;;5038843;28;20434;-83
2023/09/22 04:19:03;;;;;;;4.73;1.67;;;14.40;11.70;;;;;;5015127;28;20405;-85
2023/09/22 04:21:56;;;;;;;1.50;1.40;;;14.40;8.20;;;;;;5037689;28;20782;-88
2023/09/22 04:24:32;;;;;;;2.53;1.50;;;14.40;10.20;;;;;;5037118;28;20407;-88
2023/09/22 04:30:20;;;;;;;1.93;1.70;;;14.40;15.90;;;;;;5049781;28;20391;-88
2023/09/22 04:36:09;;;;;;;3.20;1.67;;;14.50;17.90;;;;;;5023269;28;20421;-84
2023/09/22 04:39:26;;;;;;;2.17;1.77;;;14.50;18.60;;;;;;5054667;28;20756;-84
2023/09/22 04:45:23;;;;;;;3.97;1.57;;;14.50;17.00;;;;;;5044352;28;20388;-85
2023/09/22 04:48:14;;;;;;;2.70;1.83;;;14.50;17.60;;;;;;5045099;28;20816;-84
2023/09/22 04:57:24;;;;;;;3.50;1.27;;;14.60;17.20;;;;;;5024152;28;20462;-88
2023/09/22 05:00:09;;;;;;;4.20;1.93;;;14.60;16.40;;;;;;5036098;28;20435;-88
2023/09/22 05:06:46;;;;;;;2.20;1.70;;;14.60;15.50;;;;;;5044166;28;20422;-87
2023/09/22 05:09:20;;;;;;;3.83;1.70;;;14.60;14.90;;;;;;5049204;28;20421;-89
2023/09/22 05:11:56;;;;;;;4.27;1.57;;;14.60;15.10;;;;;;5030757;28;20442;-88
2023/09/22 05:14:38;;;;;;;8.90;1.60;;;14.70;15.20;;;;;;5043791;28;20445;-88
2023/09/22 05:20:25;;;;;;;1.70;1.30;;;14.80;13.30;;;;;;5038125;28;20741;-88
2023/09/22 05:23:14;;;;;;;3.80;1.43;;;14.80;12.80;;;;;;5055492;28;20389;-84
2023/09/22 05:29:26;;;;;;;2.90;1.40;;;14.90;9.90;;;;;;5018391;28;20755;-84
2023/09/22 05:32:20;;;;;;;3.13;1.47;;;14.90;9.20;;;;;;5028502;28;20411;-84
2023/09/22 05:34:56;;;;;;;4.40;1.23;;;14.90;8.50;;;;;;5043413;28;20420;-84
2023/09/22 05:37:26;;;;;;;3.40;1.53;;;15.00;7.50;;;;;;5048244;28;20466;-84
2023/09/22 05:39:56;;;;;;;8.73;1.50;;;15.00;6.60;;;;;;5046245;28;20448;-86
2023/09/22 05:42:28;;;;;;;3.90;1.60;;;;;;;;;;5046614;28;20402;-84
2023/09/22 05:45:09;;;;;;;3.03;1.40;;;14.90;1.30;;;;;;5041408;28;20419;-85
2023/09/22 05:47:36;;;;;;;19.60;1.60;;;14.80;2.80;;;;;;5033818;28;20420;-85
2023/09/22 05:50:10;;;;;;;2.10;1.30;;;14.80;2.80;;;;;;5036328;28;20403;-85
2023/09/22 05:53:08;;;;;;;4.50;1.33;;;14.80;5.30;;;;;;5030267;28;20436;-84
2023/09/22 05:56:09;;;;;;;1.73;1.20;;;14.80;7.30;;;;;;5038383;28;20415;-85
2023/09/22 06:01:57;;;;;;;1.30;1.20;;;14.90;5.40;;;;;;5025283;28;20513;-85
2023/09/22 06:05:14;;;;;;;3.13;1.10;;;14.90;5.10;;;;;;5041789;28;20426;-85
2023/09/22 06:08:20;;;;;;;4.93;1.57;;;15.00;4.60;;;;;;5051251;28;20421;-80
2023/09/22 06:10:50;;;;;;;1.37;1.20;;;15.00;2.90;;;;;;5029984;28;20518;-81
2023/09/22 06:13:38;;;;;;;1.60;1.50;;;15.00;2.70;;;;;;5034055;28;20581;-80
2023/09/22 06:16:44;;;;;;;7.53;1.20;;;15.10;1.90;;;;;;5033488;28;20437;-81
2023/09/22 06:19:32;;;;;;;2.97;1.60;;;15.30;2.00;;;;;;5015554;28;20359;-81
2023/09/22 06:22:10;;;;;;;4.20;1.10;;;15.50;1.00;;;;;;5028884;28;20381;-83
2023/09/22 06:24:44;;;;;;;4.00;1.37;;;15.50;1.00;;;;;;5019311;28;20405;-85
2023/09/22 06:30:35;;;;;;;2.70;1.27;;;15.80;1.00;;;;;;5035481;28;20869;-85
2023/09/22 06:33:08;;;;;;;4.00;1.13;;;15.90;1.00;;;;;;5033373;28;20413;-85
2023/09/22 06:38:56;;;;;;;1.20;1.10;;;16.00;1.00;;;;;;5024678;28;20431;-81
2023/09/22 06:41:38;;;;;;;5.20;1.77;;;16.00;1.00;;;;;;5048223;28;20470;-81
2023/09/22 06:44:04;;;;;;;3.77;1.00;;;16.00;1.00;;;;;;5022791;28;20186;-81
2023/09/22 06:47:03;;;;;;;2.80;1.20;;;16.10;1.00;;;;;;5015001;28;20393;-81
2023/09/22 06:49:33;;;;;;;3.40;1.53;;;16.10;1.00;;;;;;5018353;28;20408;-80
2023/09/22 06:52:26;;;;;;;2.30;1.27;;;16.00;1.00;;;;;;5026569;28;20522;-81
2023/09/22 06:55:14;;;;;;;5.07;1.17;;;16.10;1.00;;;;;;5034014;28;20513;-81
2023/09/22 06:57:44;;;;;;;3.83;1.03;;;16.20;1.00;;;;;;5017377;28;20445;-81
2023/09/22 07:00:22;;;;;;;6.33;1.17;;;16.30;1.00;;;;;;5023123;28;21028;-80
2023/09/22 07:02:50;;;;;;;2.30;1.17;;;16.40;1.00;;;;;;5047766;28;20464;-81
2023/09/22 07:05:20;;;;;;;1.33;1.03;;;16.40;1.00;;;;;;5033239;28;20924;-81
2023/09/22 07:07:50;;;;;;;3.27;0.90;;;16.60;1.00;;;;;;5048284;28;21033;-85
2023/09/22 07:10:16;;;;;;;2.50;1.40;;;16.70;1.00;;;;;;5016820;28;20429;-85
2023/09/22 07:16:04;;;;;;;5.50;1.53;;;16.70;1.00;;;;;;5036130;28;20518;-85
2023/09/22 07:19:02;;;;;;;1.57;1.10;;;16.80;1.00;;;;;;5040393;28;20834;-84
2023/09/22 07:21:56;;;;;;;1.50;1.30;;;16.90;1.00;;;;;;5025016;28;20178;-84
2023/09/22 07:24:44;;;;;;;13.90;1.10;;;17.00;1.00;;;;;;5050664;28;20528;-85
2023/09/22 07:31:28;;;;;;;8.73;1.37;;;17.00;1.00;;;;;;5054086;28;20403;-85
2023/09/22 07:34:18;;;;;;;7.70;1.07;;;17.00;1.00;;;;;;5035138;28;20437;-84
2023/09/22 07:40:45;;;;;;;3.23;1.37;;;17.00;1.00;;;;;;5014085;28;20742;-84
2023/09/22 07:46:44;;;;;;;1.20;0.90;;;17.00;1.00;;;;;;5025873;28;20396;-84
2023/09/22 07:52:33;;;;;;;5.80;1.47;;;17.30;1.00;;;;;;5028633;28;20416;-84
2023/09/22 07:58:50;;;;;;;1.43;1.10;;;17.30;1.00;;;;;;5045852;28;20470;-88
2023/09/22 08:01:50;;;;;;;3.73;1.33;;;17.40;1.00;;;;;;5033209;28;20466;-89
2023/09/22 08:14:23;;;;;;;0.93;0.93;;;17.90;1.00;;;;;;5014163;28;20700;-90
2023/09/22 08:27:29;;;;;;;1.70;1.10;;;18.60;1.00;;;;;;5020414;28;20506;-84
2023/09/22 08:36:44;;;;;;;2.70;0.70;;;19.00;1.00;;;;;;5024997;28;20803;-88
2023/09/22 08:39:14;;;;;;;1.97;1.13;;;18.90;1.00;;;;;;5013375;28;20420;-84
2023/09/22 08:45:32;;;;;;;2.43;0.83;;;18.80;1.00;;;;;;5025292;28;20493;-83
2023/09/22 08:48:09;;;;;;;1.13;0.80;;;18.80;1.00;;;;;;5036236;28;20403;-89
2023/09/22 08:53:56;;;;;;;3.37;1.00;;;18.30;1.00;;;;;;5023592;28;21183;-91
2023/09/22 09:03:56;;;;;;;1.73;0.90;;;18.30;1.00;;;;;;5053348;28;20361;-90
2023/09/22 09:06:59;;;;;;;2.13;1.17;;;18.30;1.00;;;;;;5034488;28;20790;-93
2023/09/22 09:09:59;;;;;;;5.50;0.93;;;18.90;1.00;;;;;;4989537;28;20969;-91
2023/09/22 09:16:26;;;;;;;2.17;0.97;;;18.90;1.00;;;;;;4976953;28;20389;-94
2023/09/22 09:19:24;;;;;;;3.97;0.80;;;19.00;1.00;;;;;;4960606;28;20936;-94
2023/09/22 09:25:14;;;;;;;1.60;0.93;;;18.60;1.00;;;;;;4958199;29;20470;-87
2023/09/22 09:28:02;;;;;;;7.30;0.90;;;18.60;1.00;;;;;;4947672;29;20441;-87
2023/09/22 09:30:48;;;;;;;2.00;1.00;;;18.50;1.00;;;;;;4955990;28;20430;-87
2023/09/22 09:33:15;;;;;;;1.33;0.90;;;18.60;1.00;;;;;;4928643;29;20402;-87
2023/09/22 09:35:52;;;;;;;1.40;0.70;;;18.70;1.00;;;;;;4940673;28;20526;-87
2023/09/22 09:38:18;;;;;;;1.97;0.90;;;18.70;1.00;;;;;;4959966;28;20456;-87
2023/09/22 09:44:26;;;;;;;2.00;0.90;;;18.90;1.00;;;;;;4927711;29;20862;-87
2023/09/22 09:46:51;;;;;;;2.63;0.90;;;18.80;1.00;;;;;;4918054;29;20423;-88
2023/09/22 09:49:18;;;;;;;1.10;0.70;;;18.80;1.00;;;;;;4916357;29;20480;-87
2023/09/22 09:51:48;;;;;;;2.20;1.63;;;18.60;1.00;;;;;;4926349;29;20196;-87
2023/09/22 09:54:19;;;;;;;3.43;0.73;;;18.40;1.00;;;;;;4914913;28;20430;-87
2023/09/22 10:00:19;;;;;;;4.03;1.30;;;18.00;1.00;;;;;;5016419;28;20917;-94
2023/09/22 10:03:01;;;;;;;2.90;1.03;;;18.30;1.00;;;;;;5032070;28;20418;-95
2023/09/22 10:05:33;;;;;;;1.53;0.80;;;18.70;1.00;;;;;;5015497;28;20416;-95
2023/09/22 10:07:59;;;;;;;3.03;0.70;;;19.00;1.00;;;;;;5015343;28;20415;-94
2023/09/22 10:10:51;;;;;;;0.83;0.80;;;19.40;1.00;;;;;;5024343;28;20449;-96
2023/09/22 10:13:17;;;;;;;1.63;0.80;;;19.60;1.00;;;;;;5034082;28;20486;-95
2023/09/22 10:26:13;;;;;;;1.93;0.90;;;20.70;1.00;;;;;;5016628;28;20412;-89
2023/09/22 10:32:50;;;;;;;2.33;1.00;;;20.50;1.00;;;;;;5023100;28;20417;-89
2023/09/22 10:36:04;;;;;;;2.40;0.97;;;20.60;1.00;;;;;;5021570;28;20435;-87
2023/09/22 10:39:14;;;;;;;2.20;0.70;;;20.50;1.00;;;;;;5014008;28;20435;-89
2023/09/22 10:45:32;;;;;;;1.23;0.80;;;20.50;1.00;;;;;;5023942;28;20416;-92
2023/09/22 10:48:20;;;;;;;4.00;0.97;;;20.40;1.00;;;;;;5013095;28;20436;-89
2023/09/22 10:51:32;;;;;;;1.00;0.70;;;20.40;1.00;;;;;;5017854;28;20568;-89
2023/09/22 11:00:58;;;;;;;1.43;0.97;;;19.90;1.00;;;;;;5032536;28;20424;-86
2023/09/22 11:06:46;;;;;;;1.47;0.70;;;19.60;1.00;;;;;;5017504;28;20567;-86
2023/09/22 11:29:38;;;;;;;4.00;0.73;;;19.60;1.00;;;;;;4951852;28;20854;-88
2023/09/22 11:32:06;;;;;;;2.40;0.90;;;19.60;1.00;;;;;;4954166;29;20424;-88
2023/09/22 11:41:38;;;;;;;2.40;0.90;;;20.70;1.00;;;;;;4976417;28;20486;-92
2023/09/22 11:44:14;;;;;;;1.87;0.80;;;20.90;1.00;;;;;;4972234;28;20444;-89
2023/09/22 11:46:45;;;;;;;2.50;0.80;;;20.40;1.00;;;;;;4938514;29;20517;-91
2023/09/22 11:55:54;;;;;;;7.17;0.70;;;19.60;1.00;;;;;;4977661;28;20415;-91
2023/09/22 12:02:26;;;;;;;1.37;0.70;;;19.50;1.00;;;;;;5023498;28;20184;-91
2023/09/22 12:08:20;;;;;;;5.03;1.10;;;19.40;1.00;;;;;;5042964;28;20395;-89
2023/09/22 12:17:30;;;;;;;1.77;0.70;;;;;;;;;;5038913;28;20446;-88
2023/09/22 12:23:18;;;;;;;4.70;0.97;;;19.60;1.00;;;;;;5043264;28;20397;-88
2023/09/22 12:25:56;;;;;;;5.97;1.33;;;19.90;1.00;;;;;;5029699;28;20416;-92
2023/09/22 12:28:44;;;;;;;3.13;1.00;;;20.00;1.00;;;;;;5033851;28;20313;-90
2023/09/22 12:35:06;;;;;;;5.73;1.10;;;20.50;1.00;;;;;;5020750;28;20400;-91
2023/09/22 12:40:54;;;;;;;4.47;0.87;;;20.30;1.00;;;;;;5032011;28;20402;-91
2023/09/22 12:46:41;;;;;;;4.93;1.07;;;20.30;1.00;;;;;;5021061;28;20186;-90
2023/09/22 12:49:07;;;;;;;2.60;0.70;;;20.90;1.00;;;;;;5031528;28;20418;-90
2023/09/22 12:52:20;;;;;;;1.67;0.70;;;21.20;1.00;;;;;;5035454;28;20188;-89
2023/09/22 12:55:06;;;;;;;3.57;1.10;;;21.30;1.00;;;;;;5026682;28;20270;-88
2023/09/22 12:57:39;;;;;;;1.03;0.80;;;21.30;1.00;;;;;;5035558;28;20466;-89
2023/09/22 13:03:27;;;;;;;1.57;0.70;;;21.90;1.00;;;;;;5017533;28;20451;-88
2023/09/22 13:06:26;;;;;;;5.67;1.10;;;21.80;1.00;;;;;;5038847;28;20517;-87
2023/09/22 13:12:13;;;;;;;0.83;0.70;;;22.60;1.00;;;;;;5055099;28;20766;-91
2023/09/22 13:18:02;;;;;;;4.67;0.70;;;22.70;1.00;;;;;;5032588;28;20216;-93
2023/09/22 13:23:51;;;;;;;1.77;1.23;;;22.40;1.00;;;;;;5024699;28;20392;-91
2023/09/22 13:36:26;;;;;;;3.43;0.93;;;22.40;1.00;;;;;;5056610;28;20434;-86
2023/09/22 13:42:26;;;;;;;2.93;0.93;;;22.70;1.00;;;;;;5031745;28;20409;-93
2023/09/22 13:45:03;;;;;;;6.27;2.30;;;22.60;1.00;;;;;;5042077;28;20908;-85
2023/09/22 13:51:32;;;;;;;2.40;0.80;;;22.30;1.00;;;;;;5034768;28;20431;-84
2023/09/22 13:54:09;;;;;;;3.70;1.20;;;;;;;;;;5027320;28;20776;-93
2023/09/22 13:56:35;;;;;;;3.50;1.00;;;22.00;1.00;;;;;;5035297;28;20543;-93
2023/09/22 13:59:27;;;;;;;3.07;1.10;;;22.30;1.00;;;;;;5020998;28;20456;-92
2023/09/22 14:05:15;;;;;;;1.70;0.93;;;22.60;1.00;;;;;;5035185;28;20554;-87
2023/09/22 14:08:21;;;;;;;1.83;1.10;;;22.60;1.00;;;;;;5034014;28;20405;-92
2023/09/22 14:10:47;;;;;;;2.17;0.70;;;22.50;1.00;;;;;;5031821;28;20181;-94
2023/09/22 14:13:12;;;;;;;4.73;0.80;;;22.10;1.00;;;;;;5039090;28;20418;-88
2023/09/22 14:15:50;;;;;;;2.60;0.80;;;21.80;1.00;;;;;;5043474;28;20189;-92
2023/09/22 14:25:00;;;;;;;2.13;1.00;;;;;;;;;;5042759;28;20465;-94
2023/09/22 14:30:56;;;;;;;18.50;2.23;;;21.80;1.00;;;;;;5031558;28;20445;-91
2023/09/22 14:43:28;;;;;;;2.17;0.70;;;21.70;1.00;;;;;;5042629;28;20411;-91
2023/09/22 14:46:26;;;;;;;4.90;0.80;;;21.80;1.00;;;;;;5029343;28;20435;-92
2023/09/22 14:48:56;;;;;;;2.10;0.90;;;21.90;1.00;;;;;;5030903;28;20220;-91
2023/09/22 14:51:33;;;;;;;4.87;0.70;;;22.10;1.00;;;;;;5032369;28;20532;-89
2023/09/22 14:54:00;;;;;;;4.63;0.90;;;22.20;1.00;;;;;;5025464;28;20446;-88
2023/09/22 14:59:48;;;;;;;6.20;0.90;;;22.30;1.00;;;;;;5027860;28;20434;-89
2023/09/22 15:02:27;;;;;;;1.40;0.77;;;22.30;1.00;;;;;;5033852;28;21073;-90
2023/09/22 15:15:01;;;;;;;4.30;0.90;;;22.60;1.00;;;;;;5030650;28;20451;-89
2023/09/22 15:18:20;;;;;;;1.80;0.83;;;22.60;1.00;;;;;;5033680;28;20464;-89
2023/09/22 15:24:09;;;;;;;1.20;0.70;;;22.00;1.00;;;;;;5054193;28;20386;-90
2023/09/22 15:26:56;;;;;;;2.87;0.80;;;21.60;1.00;;;;;;5038455;28;20419;-89
2023/09/22 15:29:22;;;;;;;1.63;0.73;;;21.40;1.00;;;;;;5033214;28;20431;-92
2023/09/22 15:31:47;;;;;;;3.43;0.70;;;21.20;1.00;;;;;;5026338;28;20431;-92
2023/09/22 15:34:32;;;;;;;1.07;0.97;;;21.10;1.00;;;;;;5031314;28;20204;-93
2023/09/22 15:37:14;;;;;;;0.90;0.70;;;21.00;1.00;;;;;;5051305;28;20228;-93
2023/09/22 15:43:03;;;;;;;1.87;1.10;;;21.10;1.00;;;;;;5021582;28;20413;-86
2023/09/22 15:45:56;;;;;;;0.70;0.70;;;20.90;1.00;;;;;;5031230;28;20462;-88
2023/09/22 15:48:50;;;;;;;1.93;0.80;;;20.80;1.00;;;;;;5043361;28;20422;-91
2023/09/22 15:54:38;;;;;;;1.57;0.77;;;21.00;1.00;;;;;;5040418;28;20467;-90
2023/09/22 15:57:14;;;;;;;6.30;0.80;;;21.10;1.00;;;;;;5044641;28;20466;-88
2023/09/22 16:00:15;;;;;;;2.83;0.93;;;22.00;1.00;;;;;;5015705;28;20199;-87
2023/09/22 16:06:04;;;;;;;4.00;0.80;;;;;;;;;;5037842;28;20512;-92
2023/09/22 16:11:56;;;;;;;3.43;0.60;;;22.90;1.00;;;;;;5027668;28;20490;-87
2023/09/22 16:17:44;;;;;;;8.33;1.33;;;22.00;1.00;;;;;;5040508;28;20536;-87
2023/09/22 16:20:26;;;;;;;3.43;1.17;;;21.70;1.00;;;;;;5037185;28;20411;-89
2023/09/22 16:23:26;;;;;;;2.23;0.90;;;21.20;1.00;;;;;;5043676;28;20642;-89
2023/09/22 16:29:27;;;;;;;1.17;0.60;;;;;;;;;;5039107;28;20431;-90
2023/09/22 16:32:44;;;;;;;1.10;0.80;;;20.50;1.00;;;;;;5035988;28;20459;-89
2023/09/22 16:35:35;;;;;;;1.83;1.00;;;20.40;1.00;;;;;;5047750;28;20421;-88
2023/09/22 16:38:03;;;;;;;3.00;0.73;;;20.30;1.00;;;;;;5047419;28;20503;-82
2023/09/22 16:43:50;;;;;;;4.53;1.30;;;20.20;1.00;;;;;;5047798;28;20518;-90
2023/09/22 16:46:26;;;;;;;5.63;1.37;;;20.10;1.00;;;;;;5031817;28;20421;-89
2023/09/22 16:48:52;;;;;;;7.57;1.33;;;20.00;1.00;;;;;;5037238;28;20182;-90
2023/09/22 16:51:44;;;;;;;2.80;0.90;;;19.90;1.00;;;;;;5034384;28;20472;-89
2023/09/22 16:57:56;;;;;;;39.67;16.77;;;19.60;1.00;;;;;;5036162;28;20458;-89
2023/09/22 17:00:27;;;;;;;293.43;142.97;;;19.30;1.00;;;;;;5042385;28;20464;-89
2023/09/22 17:03:26;;;;;;;6.70;2.67;;;19.30;1.00;;;;;;5041653;28;20425;-89
2023/09/22 17:06:26;;;;;;;6.33;2.57;;;19.20;1.00;;;;;;5039671;28;20433;-88
2023/09/22 17:09:20;;;;;;;1.70;1.00;;;19.10;1.00;;;;;;5043622;28;20468;-89
2023/09/22 17:12:26;;;;;;;1.67;0.90;;;18.90;1.00;;;;;;5030559;28;20434;-89
2023/09/22 17:18:21;;;;;;;713.27;246.80;;;18.60;1.00;;;;;;5035161;28;20464;-87
2023/09/22 17:20:47;;;;;;;4.67;0.73;;;17.20;1.00;;;;;;5034297;28;20450;-88
2023/09/22 17:27:13;;;;;;;7.53;0.73;;;15.60;1.00;;;;;;5020901;28;20310;-86
2023/09/22 17:29:56;;;;;;;1.33;0.90;;;15.00;1.00;;;;;;5031156;28;20398;-85
2023/09/22 17:32:26;;;;;;;2.70;0.80;;;14.80;1.00;;;;;;5034862;28;20494;-86
2023/09/22 17:35:26;;;;;;;2.37;0.87;;;14.60;1.00;;;;;;5035776;28;20913;-84
2023/09/22 17:38:02;;;;;;;5.90;0.87;;;14.50;1.00;;;;;;5035791;28;20466;-87
2023/09/22 17:43:56;;;;;;;4.43;0.80;;;14.40;1.00;;;;;;5020245;28;20389;-87
2023/09/22 17:46:56;;;;;;;9.80;0.90;;;14.30;1.00;;;;;;5032026;28;20387;-87
2023/09/22 17:49:56;;;;;;;4.40;0.70;;;14.30;1.00;;;;;;5023801;28;20406;-87
2023/09/22 17:55:56;;;;;;;6.10;0.80;;;14.30;1.00;;;;;;5018704;28;20362;-86
2023/09/22 17:58:27;;;;;;;2.60;0.87;;;14.20;1.00;;;;;;5028534;28;20506;-86
2023/09/22 18:00:56;;;;;;;6.77;0.80;;;14.20;1.00;;;;;;5028961;28;20422;-85
2023/09/22 18:03:56;;;;;;;5.33;0.80;;;14.20;1.00;;;;;;5026155;28;20398;-85
2023/09/22 18:06:41;;;;;;;0.60;0.60;;;14.10;1.00;;;;;;5021367;28;20953;-89
2023/09/22 18:12:45;;;;;;;2.00;0.50;;;14.10;1.00;;;;;;5029498;28;20393;-89
2023/09/22 18:15:50;;;;;;;3.27;0.80;;;14.10;1.00;;;;;;5023257;28;20396;-87
2023/09/22 18:18:26;;;;;;;1.50;0.87;;;14.10;1.00;;;;;;5024557;28;20442;-88
2023/09/22 18:21:14;;;;;;;0.90;0.60;;;14.10;1.00;;;;;;5024718;28;20742;-88
2023/09/22 18:24:26;;;;;;;1.00;0.60;;;14.10;1.00;;;;;;5025757;28;20419;-87
2023/09/22 18:27:26;;;;;;;1.63;0.77;;;14.20;1.00;;;;;;5027451;28;20428;-87
2023/09/22 18:29:57;;;;;;;1.67;0.83;;;14.20;1.00;;;;;;5036693;28;20457;-83
2023/09/22 18:32:26;;;;;;;5.67;0.80;;;14.20;1.00;;;;;;5038177;28;20433;-83
2023/09/22 18:34:57;;;;;;;1.60;0.70;;;14.10;1.00;;;;;;5037269;28;20415;-86
2023/09/22 18:37:32;;;;;;;3.03;0.97;;;14.20;1.00;;;;;;5034188;28;20490;-86
2023/09/22 18:39:58;;;;;;;3.40;0.80;;;14.20;1.00;;;;;;5030122;28;20428;-86
2023/09/22 18:42:26;;;;;;;3.17;0.90;;;14.20;1.00;;;;;;5028739;28;20408;-86
2023/09/22 18:44:56;;;;;;;2.10;0.93;;;14.30;1.00;;;;;;5031297;28;20645;-88
2023/09/22 18:47:26;;;;;;;2.60;0.73;;;14.30;1.00;;;;;;5039691;28;20418;-87
2023/09/22 18:50:26;;;;;;;3.23;0.97;;;14.30;1.00;;;;;;5030646;28;20417;-88
2023/09/22 18:53:21;;;;;;;6.30;1.40;;;14.20;1.00;;;;;;5034424;28;20427;-87
2023/09/22 18:55:54;;;;;;;2.70;0.57;;;14.20;1.00;;;;;;5044240;28;20442;-86
2023/09/22 18:58:57;;;;;;;2.63;0.83;;;14.20;1.00;;;;;;5043900;28;20517;-86
2023/09/22 19:01:56;;;;;;;1.47;0.80;;;14.10;1.00;;;;;;5037719;28;20401;-87
2023/09/22 19:04:26;;;;;;;3.70;0.77;;;14.00;1.00;;;;;;5040735;28;20857;-86
2023/09/22 19:06:56;;;;;;;1.80;0.60;;;14.00;1.00;;;;;;5028872;28;20415;-86
2023/09/22 19:09:50;;;;;;;2.60;0.70;;;13.90;1.00;;;;;;5016934;28;20366;-87
2023/09/22 19:16:01;;;;;;;7.07;0.70;;;13.80;1.00;;;;;;5028613;28;20476;-86
2023/09/22 19:18:56;;;;;;;10.60;0.80;;;13.80;1.00;;;;;;5033972;28;20439;-88
2023/09/22 19:21:56;;;;;;;2.13;0.90;;;13.60;1.00;;;;;;5028730;28;20426;-87
2023/09/22 19:27:59;;;;;;;9.27;1.00;;;13.50;1.00;;;;;;5041136;28;20816;-87
2023/09/22 19:30:27;;;;;;;2.20;0.83;;;13.40;1.00;;;;;;5036587;28;20423;-87
2023/09/22 19:32:56;;;;;;;4.10;0.80;;;13.40;1.00;;;;;;5054843;28;21142;-85